Main page
METAR-TAF:

METAR-TAF

Airports :

Raja Bhoj Airport

Bhopal, India

latitude: 23-17-15N, longitude: 77-20-15E, elevation: 524 m

Current weather observation

The report was made 2 hours and 44 minutes ago, at 18:00 UTC
Wind 6 kt from the North
Temperature 21°C
Humidity 43%
Pressure 1017 hPa
Visibility: 5000 m
haze

METAR: VABP 281800Z 36006KT 5000 HZ NSC 21/08 Q1017 NOSIG

Time: 02:14 (20:44 UTC)

Forecast

The report was made 44 minutes ago, at 20:00 UTC
Forecast valid from 28 at 21 UTC to 29 at 06 UTC
Wind 5 kt from the Northeast
Visibility: 4000 m
haze
Becoming
from 29 at 01 UTC to 29 at 03 UTC
Wind 5 kt from the North/Northeast
Visibility: 2000 m
mist
Becoming
from 29 at 04 UTC to 29 at 06 UTC
Wind 5 kt from the Northeast
Visibility: 5000 m
Few clouds at a height of 3000 ft
haze

TAF: VABP 282000Z 2821/2906 05005KT 4000 HZ NSC BECMG 2901/2903 02005KT 2000 BR NSC BECMG 2904/2906 05005KT 5000 HZ FEW030

Weather observations and forecasts of more than 4000 airports (METAR and TAF reports).

The available stations are represented by yellow and red dots on the map.

Hover mouse over dot to see the name of the station.

Then click to see weather observations and forecasts.

To change the map : click on the green buttons with a black cross to zoom in, on the green button with a dash to zoom out, or on the green arrows for adjacent maps.


METAR-TAF: